sensor_id;sensor_type;location;lat;lon;timestamp;temperature;humidity
14277;DHT22;7222;57.346;12.150;2023-02-15T00:01:52;3.70;99.90
14277;DHT22;7222;57.346;12.150;2023-02-15T00:04:21;3.70;99.90
14277;DHT22;7222;57.346;12.150;2023-02-15T00:06:48;3.70;99.90
14277;DHT22;7222;57.346;12.150;2023-02-15T00:09:15;3.70;99.90
14277;DHT22;7222;57.346;12.150;2023-02-15T00:11:43;3.70;99.90
14277;DHT22;7222;57.346;12.150;2023-02-15T00:14:16;3.70;99.90
14277;DHT22;7222;57.346;12.150;2023-02-15T00:16:44;3.80;99.90
14277;DHT22;7222;57.346;12.150;2023-02-15T00:19:15;3.80;99.90
14277;DHT22;7222;57.346;12.150;2023-02-15T00:21:44;3.80;99.90
14277;DHT22;7222;57.346;12.150;2023-02-15T00:24:13;3.70;99.90
14277;DHT22;7222;57.346;12.150;2023-02-15T00:26:42;3.70;99.90
14277;DHT22;7222;57.346;12.150;2023-02-15T00:29:10;3.70;99.90
14277;DHT22;7222;57.346;12.150;2023-02-15T00:31:38;3.70;99.90
14277;DHT22;7222;57.346;12.150;2023-02-15T00:34:07;3.70;99.90
14277;DHT22;7222;57.346;12.150;2023-02-15T00:36:36;3.70;99.90
14277;DHT22;7222;57.346;12.150;2023-02-15T00:39:03;3.70;99.90
14277;DHT22;7222;57.346;12.150;2023-02-15T00:41:30;3.60;99.90
14277;DHT22;7222;57.346;12.150;2023-02-15T00:43:57;3.70;99.90
14277;DHT22;7222;57.346;12.150;2023-02-15T00:46:24;3.70;99.90
14277;DHT22;7222;57.346;12.150;2023-02-15T00:48:51;3.70;99.90
14277;DHT22;7222;57.346;12.150;2023-02-15T00:51:18;3.70;99.90
14277;DHT22;7222;57.346;12.150;2023-02-15T00:53:47;3.70;99.90
14277;DHT22;7222;57.346;12.150;2023-02-15T00:56:14;3.60;99.90
14277;DHT22;7222;57.346;12.150;2023-02-15T00:58:42;3.60;99.90
14277;DHT22;7222;57.346;12.150;2023-02-15T01:01:11;3.60;99.90
14277;DHT22;7222;57.346;12.150;2023-02-15T01:03:38;3.70;99.90
14277;DHT22;7222;57.346;12.150;2023-02-15T01:06:07;3.60;99.90
14277;DHT22;7222;57.346;12.150;2023-02-15T01:08:34;3.60;99.90
14277;DHT22;7222;57.346;12.150;2023-02-15T01:11:05;3.60;99.90
14277;DHT22;7222;57.346;12.150;2023-02-15T01:13:32;3.60;99.90
14277;DHT22;7222;57.346;12.150;2023-02-15T01:16:00;3.60;99.90
14277;DHT22;7222;57.346;12.150;2023-02-15T01:18:27;3.70;99.90
14277;DHT22;7222;57.346;12.150;2023-02-15T01:20:53;3.60;99.90
14277;DHT22;7222;57.346;12.150;2023-02-15T01:23:20;3.70;99.90
14277;DHT22;7222;57.346;12.150;2023-02-15T01:25:48;3.60;99.90
14277;DHT22;7222;57.346;12.150;2023-02-15T01:28:16;3.60;99.90
14277;DHT22;7222;57.346;12.150;2023-02-15T01:30:43;3.60;99.90
14277;DHT22;7222;57.346;12.150;2023-02-15T01:33:11;3.60;99.90
14277;DHT22;7222;57.346;12.150;2023-02-15T01:35:43;3.60;99.90
14277;DHT22;7222;57.346;12.150;2023-02-15T01:38:11;3.60;99.90
14277;DHT22;7222;57.346;12.150;2023-02-15T01:40:38;3.60;99.90
14277;DHT22;7222;57.346;12.150;2023-02-15T01:43:10;3.60;99.90
14277;DHT22;7222;57.346;12.150;2023-02-15T01:45:38;3.50;99.90
14277;DHT22;7222;57.346;12.150;2023-02-15T01:48:12;3.50;99.90
14277;DHT22;7222;57.346;12.150;2023-02-15T01:50:42;3.60;99.90
14277;DHT22;7222;57.346;12.150;2023-02-15T01:53:20;3.50;99.90
14277;DHT22;7222;57.346;12.150;2023-02-15T01:55:52;3.50;99.90
14277;DHT22;7222;57.346;12.150;2023-02-15T01:58:22;3.50;99.90
14277;DHT22;7222;57.346;12.150;2023-02-15T02:00:50;3.50;99.90
14277;DHT22;7222;57.346;12.150;2023-02-15T02:03:20;3.40;99.90
14277;DHT22;7222;57.346;12.150;2023-02-15T02:05:54;3.50;99.90
14277;DHT22;7222;57.346;12.150;2023-02-15T02:08:20;3.50;99.90
14277;DHT22;7222;57.346;12.150;2023-02-15T02:10:47;3.50;99.90
14277;DHT22;7222;57.346;12.150;2023-02-15T02:13:14;3.40;99.90
14277;DHT22;7222;57.346;12.150;2023-02-15T02:15:48;3.40;99.90
14277;DHT22;7222;57.346;12.150;2023-02-15T02:18:31;3.40;99.90
14277;DHT22;7222;57.346;12.150;2023-02-15T02:21:30;3.30;99.90
14277;DHT22;7222;57.346;12.150;2023-02-15T02:24:20;3.30;99.90
14277;DHT22;7222;57.346;12.150;2023-02-15T02:27:22;3.40;99.90
14277;DHT22;7222;57.346;12.150;2023-02-15T02:33:07;3.40;99.90
14277;DHT22;7222;57.346;12.150;2023-02-15T02:35:43;3.40;99.90
14277;DHT22;7222;57.346;12.150;2023-02-15T02:38:17;3.40;99.90
14277;DHT22;7222;57.346;12.150;2023-02-15T02:41:07;3.40;99.90
14277;DHT22;7222;57.346;12.150;2023-02-15T02:43:40;3.40;99.90
14277;DHT22;7222;57.346;12.150;2023-02-15T02:46:15;3.40;99.90
14277;DHT22;7222;57.346;12.150;2023-02-15T02:48:46;3.40;99.90
14277;DHT22;7222;57.346;12.150;2023-02-15T02:51:15;3.40;99.90
14277;DHT22;7222;57.346;12.150;2023-02-15T02:53:48;3.30;99.90
14277;DHT22;7222;57.346;12.150;2023-02-15T02:56:21;3.40;99.90
14277;DHT22;7222;57.346;12.150;2023-02-15T02:58:53;3.40;99.90
14277;DHT22;7222;57.346;12.150;2023-02-15T03:01:26;3.40;99.90
14277;DHT22;7222;57.346;12.150;2023-02-15T03:03:57;3.40;99.90
14277;DHT22;7222;57.346;12.150;2023-02-15T03:06:38;3.40;99.90
14277;DHT22;7222;57.346;12.150;2023-02-15T03:09:09;3.40;99.90
14277;DHT22;7222;57.346;12.150;2023-02-15T03:11:41;3.40;99.90
14277;DHT22;7222;57.346;12.150;2023-02-15T03:14:08;3.40;99.90
14277;DHT22;7222;57.346;12.150;2023-02-15T03:16:36;3.40;99.90
14277;DHT22;7222;57.346;12.150;2023-02-15T03:19:09;3.40;99.90
14277;DHT22;7222;57.346;12.150;2023-02-15T03:21:40;3.40;99.90
14277;DHT22;7222;57.346;12.150;2023-02-15T03:24:11;3.40;99.90
14277;DHT22;7222;57.346;12.150;2023-02-15T03:26:43;3.40;99.90
14277;DHT22;7222;57.346;12.150;2023-02-15T03:29:12;3.40;99.90
14277;DHT22;7222;57.346;12.150;2023-02-15T03:31:43;3.40;99.90
14277;DHT22;7222;57.346;12.150;2023-02-15T03:34:15;3.30;99.90
14277;DHT22;7222;57.346;12.150;2023-02-15T03:36:46;3.30;99.90
14277;DHT22;7222;57.346;12.150;2023-02-15T03:39:19;3.30;99.90
14277;DHT22;7222;57.346;12.150;2023-02-15T03:41:54;3.20;99.90
14277;DHT22;7222;57.346;12.150;2023-02-15T03:44:27;3.20;99.90
14277;DHT22;7222;57.346;12.150;2023-02-15T03:46:58;3.20;99.90
14277;DHT22;7222;57.346;12.150;2023-02-15T03:49:31;3.20;99.90
14277;DHT22;7222;57.346;12.150;2023-02-15T03:52:00;3.20;99.90
14277;DHT22;7222;57.346;12.150;2023-02-15T03:54:31;3.30;99.90
14277;DHT22;7222;57.346;12.150;2023-02-15T03:57:17;3.20;99.90
14277;DHT22;7222;57.346;12.150;2023-02-15T04:00:06;3.30;99.90
14277;DHT22;7222;57.346;12.150;2023-02-15T04:03:18;3.20;99.90
14277;DHT22;7222;57.346;12.150;2023-02-15T04:05:49;3.20;99.90
14277;DHT22;7222;57.346;12.150;2023-02-15T04:08:16;3.20;99.90
14277;DHT22;7222;57.346;12.150;2023-02-15T04:10:43;3.30;99.90
14277;DHT22;7222;57.346;12.150;2023-02-15T04:13:18;3.20;99.90
14277;DHT22;7222;57.346;12.150;2023-02-15T04:15:45;3.30;99.90
14277;DHT22;7222;57.346;12.150;2023-02-15T04:18:30;3.30;99.90
14277;DHT22;7222;57.346;12.150;2023-02-15T04:21:17;3.30;99.90
14277;DHT22;7222;57.346;12.150;2023-02-15T04:24:01;3.30;99.90
14277;DHT22;7222;57.346;12.150;2023-02-15T04:26:46;3.20;99.90
14277;DHT22;7222;57.346;12.150;2023-02-15T04:29:14;3.30;99.90
14277;DHT22;7222;57.346;12.150;2023-02-15T04:31:41;3.30;99.90
14277;DHT22;7222;57.346;12.150;2023-02-15T04:34:09;3.30;99.90
14277;DHT22;7222;57.346;12.150;2023-02-15T04:36:38;3.20;99.90
14277;DHT22;7222;57.346;12.150;2023-02-15T04:39:05;3.20;99.90
14277;DHT22;7222;57.346;12.150;2023-02-15T04:41:32;3.20;99.90
14277;DHT22;7222;57.346;12.150;2023-02-15T04:43:59;3.20;99.90
14277;DHT22;7222;57.346;12.150;2023-02-15T04:46:27;3.20;99.90
14277;DHT22;7222;57.346;12.150;2023-02-15T04:48:54;3.20;99.90
14277;DHT22;7222;57.346;12.150;2023-02-15T04:51:21;3.20;99.90
14277;DHT22;7222;57.346;12.150;2023-02-15T04:53:50;3.20;99.90
14277;DHT22;7222;57.346;12.150;2023-02-15T04:56:18;3.20;99.90
14277;DHT22;7222;57.346;12.150;2023-02-15T04:58:45;3.20;99.90
14277;DHT22;7222;57.346;12.150;2023-02-15T05:01:12;3.20;99.90
14277;DHT22;7222;57.346;12.150;2023-02-15T05:03:40;3.30;99.90
14277;DHT22;7222;57.346;12.150;2023-02-15T05:06:06;3.20;99.90
14277;DHT22;7222;57.346;12.150;2023-02-15T05:08:33;3.20;99.90
14277;DHT22;7222;57.346;12.150;2023-02-15T05:11:02;3.20;99.90
14277;DHT22;7222;57.346;12.150;2023-02-15T05:13:29;3.20;99.90
14277;DHT22;7222;57.346;12.150;2023-02-15T05:15:55;3.20;99.90
14277;DHT22;7222;57.346;12.150;2023-02-15T05:18:22;3.20;99.90
14277;DHT22;7222;57.346;12.150;2023-02-15T05:20:49;3.10;99.90
14277;DHT22;7222;57.346;12.150;2023-02-15T05:23:16;3.10;99.90
14277;DHT22;7222;57.346;12.150;2023-02-15T05:25:46;3.10;99.90
14277;DHT22;7222;57.346;12.150;2023-02-15T05:28:33;3.10;99.90
14277;DHT22;7222;57.346;12.150;2023-02-15T05:31:03;3.10;99.90
14277;DHT22;7222;57.346;12.150;2023-02-15T05:33:31;3.10;99.90
14277;DHT22;7222;57.346;12.150;2023-02-15T05:35:58;3.10;99.90
14277;DHT22;7222;57.346;12.150;2023-02-15T05:38:25;3.10;99.90
14277;DHT22;7222;57.346;12.150;2023-02-15T05:40:52;3.20;99.90
14277;DHT22;7222;57.346;12.150;2023-02-15T05:43:19;3.10;99.90
14277;DHT22;7222;57.346;12.150;2023-02-15T05:45:48;3.10;99.90
14277;DHT22;7222;57.346;12.150;2023-02-15T05:48:15;3.10;99.90
14277;DHT22;7222;57.346;12.150;2023-02-15T05:50:42;3.10;99.90
14277;DHT22;7222;57.346;12.150;2023-02-15T05:53:09;3.00;99.90
14277;DHT22;7222;57.346;12.150;2023-02-15T05:55:37;3.00;99.90
14277;DHT22;7222;57.346;12.150;2023-02-15T05:58:04;3.00;99.90
14277;DHT22;7222;57.346;12.150;2023-02-15T06:00:31;3.00;99.90
14277;DHT22;7222;57.346;12.150;2023-02-15T06:02:59;3.00;99.90
14277;DHT22;7222;57.346;12.150;2023-02-15T06:05:26;3.00;99.90
14277;DHT22;7222;57.346;12.150;2023-02-15T06:07:53;2.90;99.90
14277;DHT22;7222;57.346;12.150;2023-02-15T06:10:20;2.90;99.90
14277;DHT22;7222;57.346;12.150;2023-02-15T06:12:47;2.90;99.90
14277;DHT22;7222;57.346;12.150;2023-02-15T06:15:14;3.00;99.90
14277;DHT22;7222;57.346;12.150;2023-02-15T06:17:41;3.00;99.90
14277;DHT22;7222;57.346;12.150;2023-02-15T06:20:11;3.00;99.90
14277;DHT22;7222;57.346;12.150;2023-02-15T06:22:38;3.00;99.90
14277;DHT22;7222;57.346;12.150;2023-02-15T06:25:05;3.00;99.90
14277;DHT22;7222;57.346;12.150;2023-02-15T06:27:35;3.00;99.90
14277;DHT22;7222;57.346;12.150;2023-02-15T06:30:03;2.90;99.90
14277;DHT22;7222;57.346;12.150;2023-02-15T06:32:31;3.00;99.90
14277;DHT22;7222;57.346;12.150;2023-02-15T06:34:58;3.00;99.90
14277;DHT22;7222;57.346;12.150;2023-02-15T06:37:26;3.00;99.90
14277;DHT22;7222;57.346;12.150;2023-02-15T06:39:53;3.00;99.90
14277;DHT22;7222;57.346;12.150;2023-02-15T06:42:21;3.00;99.90
14277;DHT22;7222;57.346;12.150;2023-02-15T06:44:48;3.00;99.90
14277;DHT22;7222;57.346;12.150;2023-02-15T06:47:15;3.00;99.90
14277;DHT22;7222;57.346;12.150;2023-02-15T06:49:42;2.90;99.90
14277;DHT22;7222;57.346;12.150;2023-02-15T06:52:09;3.00;99.90
14277;DHT22;7222;57.346;12.150;2023-02-15T06:54:37;2.90;99.90
14277;DHT22;7222;57.346;12.150;2023-02-15T06:57:04;3.00;99.90
14277;DHT22;7222;57.346;12.150;2023-02-15T06:59:31;3.00;99.90
14277;DHT22;7222;57.346;12.150;2023-02-15T07:01:58;3.00;99.90
14277;DHT22;7222;57.346;12.150;2023-02-15T07:04:25;3.00;99.90
14277;DHT22;7222;57.346;12.150;2023-02-15T07:06:54;3.00;99.90
14277;DHT22;7222;57.346;12.150;2023-02-15T07:09:21;3.00;99.90
14277;DHT22;7222;57.346;12.150;2023-02-15T07:11:50;2.90;99.90
14277;DHT22;7222;57.346;12.150;2023-02-15T07:14:30;2.90;99.90
14277;DHT22;7222;57.346;12.150;2023-02-15T07:16:57;2.90;99.90
14277;DHT22;7222;57.346;12.150;2023-02-15T07:19:24;3.00;99.90
14277;DHT22;7222;57.346;12.150;2023-02-15T07:21:51;2.90;99.90
14277;DHT22;7222;57.346;12.150;2023-02-15T07:24:18;2.90;99.90
14277;DHT22;7222;57.346;12.150;2023-02-15T07:26:45;3.00;99.90
14277;DHT22;7222;57.346;12.150;2023-02-15T07:29:14;2.90;99.90
14277;DHT22;7222;57.346;12.150;2023-02-15T07:31:41;2.90;99.90
14277;DHT22;7222;57.346;12.150;2023-02-15T07:34:11;2.90;99.90
14277;DHT22;7222;57.346;12.150;2023-02-15T07:36:38;2.90;99.90
14277;DHT22;7222;57.346;12.150;2023-02-15T07:39:05;2.90;99.90
14277;DHT22;7222;57.346;12.150;2023-02-15T07:41:31;2.90;99.90
14277;DHT22;7222;57.346;12.150;2023-02-15T07:43:58;2.90;99.90
14277;DHT22;7222;57.346;12.150;2023-02-15T07:46:27;3.00;99.90
14277;DHT22;7222;57.346;12.150;2023-02-15T07:48:54;2.90;99.90
14277;DHT22;7222;57.346;12.150;2023-02-15T07:51:21;2.90;99.90
14277;DHT22;7222;57.346;12.150;2023-02-15T07:53:48;2.90;99.90
14277;DHT22;7222;57.346;12.150;2023-02-15T07:56:17;3.00;99.90
14277;DHT22;7222;57.346;12.150;2023-02-15T07:58:44;3.00;99.90
14277;DHT22;7222;57.346;12.150;2023-02-15T08:01:24;2.90;99.90
14277;DHT22;7222;57.346;12.150;2023-02-15T08:03:53;3.00;99.90
14277;DHT22;7222;57.346;12.150;2023-02-15T08:06:21;2.90;99.90
14277;DHT22;7222;57.346;12.150;2023-02-15T08:08:48;3.00;99.90
14277;DHT22;7222;57.346;12.150;2023-02-15T08:11:18;2.90;99.90
14277;DHT22;7222;57.346;12.150;2023-02-15T08:14:03;3.00;99.90
14277;DHT22;7222;57.346;12.150;2023-02-15T08:16:33;3.00;99.90
14277;DHT22;7222;57.346;12.150;2023-02-15T08:19:02;3.00;99.90
14277;DHT22;7222;57.346;12.150;2023-02-15T08:21:30;2.90;99.90
14277;DHT22;7222;57.346;12.150;2023-02-15T08:23:58;2.90;99.90
14277;DHT22;7222;57.346;12.150;2023-02-15T08:26:26;2.90;99.90
14277;DHT22;7222;57.346;12.150;2023-02-15T08:28:54;3.00;99.90
14277;DHT22;7222;57.346;12.150;2023-02-15T08:31:21;2.90;99.90
14277;DHT22;7222;57.346;12.150;2023-02-15T08:33:50;3.00;99.90
14277;DHT22;7222;57.346;12.150;2023-02-15T08:36:20;2.90;99.90
14277;DHT22;7222;57.346;12.150;2023-02-15T08:38:47;3.00;99.90
14277;DHT22;7222;57.346;12.150;2023-02-15T08:41:16;3.00;99.90
14277;DHT22;7222;57.346;12.150;2023-02-15T08:43:45;3.00;99.90
14277;DHT22;7222;57.346;12.150;2023-02-15T08:46:14;3.00;99.90
14277;DHT22;7222;57.346;12.150;2023-02-15T08:48:41;3.00;99.90
14277;DHT22;7222;57.346;12.150;2023-02-15T08:51:10;3.00;99.90
14277;DHT22;7222;57.346;12.150;2023-02-15T08:53:39;3.10;99.90
14277;DHT22;7222;57.346;12.150;2023-02-15T08:56:08;3.10;99.90
14277;DHT22;7222;57.346;12.150;2023-02-15T08:58:35;3.10;99.90
14277;DHT22;7222;57.346;12.150;2023-02-15T09:01:08;3.10;99.90
14277;DHT22;7222;57.346;12.150;2023-02-15T09:03:35;3.10;99.90
14277;DHT22;7222;57.346;12.150;2023-02-15T09:06:02;3.10;99.90
14277;DHT22;7222;57.346;12.150;2023-02-15T09:08:30;3.10;99.90
14277;DHT22;7222;57.346;12.150;2023-02-15T09:11:06;3.20;99.90
14277;DHT22;7222;57.346;12.150;2023-02-15T09:13:33;3.10;99.90
14277;DHT22;7222;57.346;12.150;2023-02-15T09:16:02;3.10;99.90
14277;DHT22;7222;57.346;12.150;2023-02-15T09:18:30;3.10;99.90
14277;DHT22;7222;57.346;12.150;2023-02-15T09:21:03;3.10;99.90
14277;DHT22;7222;57.346;12.150;2023-02-15T09:23:29;3.20;99.90
14277;DHT22;7222;57.346;12.150;2023-02-15T09:25:56;3.20;99.90
14277;DHT22;7222;57.346;12.150;2023-02-15T09:28:25;3.20;99.90
14277;DHT22;7222;57.346;12.150;2023-02-15T09:30:52;3.30;99.90
14277;DHT22;7222;57.346;12.150;2023-02-15T09:33:19;3.20;99.90
14277;DHT22;7222;57.346;12.150;2023-02-15T09:35:47;3.20;99.90
14277;DHT22;7222;57.346;12.150;2023-02-15T09:38:14;3.30;99.90
14277;DHT22;7222;57.346;12.150;2023-02-15T09:40:51;3.30;99.90
14277;DHT22;7222;57.346;12.150;2023-02-15T09:43:30;3.40;99.90
14277;DHT22;7222;57.346;12.150;2023-02-15T09:46:14;3.30;99.90
14277;DHT22;7222;57.346;12.150;2023-02-15T09:48:48;3.40;99.90
14277;DHT22;7222;57.346;12.150;2023-02-15T09:51:49;3.30;99.90
14277;DHT22;7222;57.346;12.150;2023-02-15T09:54:34;3.30;99.90
14277;DHT22;7222;57.346;12.150;2023-02-15T09:57:08;3.30;99.90
14277;DHT22;7222;57.346;12.150;2023-02-15T09:59:43;3.30;99.90
14277;DHT22;7222;57.346;12.150;2023-02-15T10:02:24;3.40;99.90
14277;DHT22;7222;57.346;12.150;2023-02-15T10:05:04;3.30;99.90
14277;DHT22;7222;57.346;12.150;2023-02-15T10:07:50;3.30;99.90
14277;DHT22;7222;57.346;12.150;2023-02-15T10:10:26;3.20;99.90
14277;DHT22;7222;57.346;12.150;2023-02-15T10:13:17;3.20;99.90
14277;DHT22;7222;57.346;12.150;2023-02-15T10:16:00;3.20;99.90
14277;DHT22;7222;57.346;12.150;2023-02-15T10:18:43;3.30;99.90
14277;DHT22;7222;57.346;12.150;2023-02-15T10:21:19;3.30;99.90
14277;DHT22;7222;57.346;12.150;2023-02-15T10:24:01;3.40;99.90
14277;DHT22;7222;57.346;12.150;2023-02-15T10:26:34;3.40;99.90
14277;DHT22;7222;57.346;12.150;2023-02-15T10:29:08;3.40;99.90
14277;DHT22;7222;57.346;12.150;2023-02-15T10:31:46;3.30;99.90
14277;DHT22;7222;57.346;12.150;2023-02-15T10:34:18;3.30;99.90
14277;DHT22;7222;57.346;12.150;2023-02-15T10:36:58;3.40;99.90
14277;DHT22;7222;57.346;12.150;2023-02-15T10:39:38;3.40;99.90
14277;DHT22;7222;57.346;12.150;2023-02-15T10:42:13;3.40;99.90
14277;DHT22;7222;57.346;12.150;2023-02-15T10:44:54;3.50;99.90
14277;DHT22;7222;57.346;12.150;2023-02-15T10:47:44;3.40;99.90
14277;DHT22;7222;57.346;12.150;2023-02-15T10:50:27;3.40;99.90
14277;DHT22;7222;57.346;12.150;2023-02-15T10:53:10;3.40;99.90
14277;DHT22;7222;57.346;12.150;2023-02-15T10:55:48;3.40;99.90
14277;DHT22;7222;57.346;12.150;2023-02-15T10:58:24;3.40;99.90
14277;DHT22;7222;57.346;12.150;2023-02-15T11:00:58;3.40;99.90
14277;DHT22;7222;57.346;12.150;2023-02-15T11:03:40;3.50;99.90
14277;DHT22;7222;57.346;12.150;2023-02-15T11:06:15;3.40;99.90
14277;DHT22;7222;57.346;12.150;2023-02-15T11:08:46;3.50;99.90
14277;DHT22;7222;57.346;12.150;2023-02-15T11:11:19;3.60;99.90
14277;DHT22;7222;57.346;12.150;2023-02-15T11:13:51;3.50;99.90
14277;DHT22;7222;57.346;12.150;2023-02-15T11:16:22;3.50;99.90
14277;DHT22;7222;57.346;12.150;2023-02-15T11:18:56;3.50;99.90
14277;DHT22;7222;57.346;12.150;2023-02-15T11:21:27;3.50;99.90
14277;DHT22;7222;57.346;12.150;2023-02-15T11:23:56;3.60;99.90
14277;DHT22;7222;57.346;12.150;2023-02-15T11:26:28;3.50;99.90
14277;DHT22;7222;57.346;12.150;2023-02-15T11:28:58;3.60;99.90
14277;DHT22;7222;57.346;12.150;2023-02-15T11:31:40;3.50;99.90
14277;DHT22;7222;57.346;12.150;2023-02-15T11:34:16;3.60;99.90
14277;DHT22;7222;57.346;12.150;2023-02-15T11:36:46;3.50;99.90
14277;DHT22;7222;57.346;12.150;2023-02-15T11:39:17;3.50;99.90
14277;DHT22;7222;57.346;12.150;2023-02-15T11:41:49;3.50;99.90
14277;DHT22;7222;57.346;12.150;2023-02-15T11:44:21;3.50;99.90
14277;DHT22;7222;57.346;12.150;2023-02-15T11:46:49;3.50;99.90
14277;DHT22;7222;57.346;12.150;2023-02-15T11:49:24;3.40;99.90
14277;DHT22;7222;57.346;12.150;2023-02-15T11:51:53;3.50;99.90
14277;DHT22;7222;57.346;12.150;2023-02-15T11:54:26;3.50;99.90
14277;DHT22;7222;57.346;12.150;2023-02-15T11:56:54;3.50;99.90
14277;DHT22;7222;57.346;12.150;2023-02-15T11:59:27;3.50;99.90
14277;DHT22;7222;57.346;12.150;2023-02-15T12:01:56;3.50;99.90
14277;DHT22;7222;57.346;12.150;2023-02-15T12:04:25;3.50;99.90
14277;DHT22;7222;57.346;12.150;2023-02-15T12:06:57;3.50;99.90
14277;DHT22;7222;57.346;12.150;2023-02-15T12:09:31;3.50;99.90
14277;DHT22;7222;57.346;12.150;2023-02-15T12:12:20;3.60;99.90
14277;DHT22;7222;57.346;12.150;2023-02-15T12:14:48;3.50;99.90
14277;DHT22;7222;57.346;12.150;2023-02-15T12:17:16;3.50;99.90
14277;DHT22;7222;57.346;12.150;2023-02-15T12:19:45;3.60;99.90
14277;DHT22;7222;57.346;12.150;2023-02-15T12:22:20;3.50;99.90
14277;DHT22;7222;57.346;12.150;2023-02-15T12:24:51;3.60;99.90
14277;DHT22;7222;57.346;12.150;2023-02-15T12:27:20;3.60;99.90
14277;DHT22;7222;57.346;12.150;2023-02-15T12:29:51;3.60;99.90
14277;DHT22;7222;57.346;12.150;2023-02-15T12:32:22;3.60;99.90
14277;DHT22;7222;57.346;12.150;2023-02-15T12:34:52;3.60;99.90
14277;DHT22;7222;57.346;12.150;2023-02-15T12:37:23;3.60;99.90
14277;DHT22;7222;57.346;12.150;2023-02-15T12:39:54;3.60;99.90
14277;DHT22;7222;57.346;12.150;2023-02-15T12:42:21;3.60;99.90
14277;DHT22;7222;57.346;12.150;2023-02-15T12:45:00;3.70;99.90
14277;DHT22;7222;57.346;12.150;2023-02-15T12:47:28;3.70;99.90
14277;DHT22;7222;57.346;12.150;2023-02-15T12:50:07;3.70;99.90
14277;DHT22;7222;57.346;12.150;2023-02-15T12:52:42;3.70;99.90
14277;DHT22;7222;57.346;12.150;2023-02-15T12:55:16;3.70;99.90
14277;DHT22;7222;57.346;12.150;2023-02-15T12:57:44;3.70;99.90
14277;DHT22;7222;57.346;12.150;2023-02-15T13:00:26;3.80;99.90
14277;DHT22;7222;57.346;12.150;2023-02-15T13:02:55;3.70;99.90
14277;DHT22;7222;57.346;12.150;2023-02-15T13:05:29;3.80;99.90
14277;DHT22;7222;57.346;12.150;2023-02-15T13:07:59;3.80;99.90
14277;DHT22;7222;57.346;12.150;2023-02-15T13:10:29;3.70;99.90
14277;DHT22;7222;57.346;12.150;2023-02-15T13:12:56;3.70;99.90
14277;DHT22;7222;57.346;12.150;2023-02-15T13:15:30;3.80;99.90
14277;DHT22;7222;57.346;12.150;2023-02-15T13:17:59;3.80;99.90
14277;DHT22;7222;57.346;12.150;2023-02-15T13:20:29;3.70;99.90
14277;DHT22;7222;57.346;12.150;2023-02-15T13:22:59;3.70;99.90
14277;DHT22;7222;57.346;12.150;2023-02-15T13:25:35;3.70;99.90
14277;DHT22;7222;57.346;12.150;2023-02-15T13:28:10;3.70;99.90
14277;DHT22;7222;57.346;12.150;2023-02-15T13:30:43;3.70;99.90
14277;DHT22;7222;57.346;12.150;2023-02-15T13:33:16;3.70;99.90
14277;DHT22;7222;57.346;12.150;2023-02-15T13:35:51;3.70;99.90
14277;DHT22;7222;57.346;12.150;2023-02-15T13:38:41;3.70;99.90
14277;DHT22;7222;57.346;12.150;2023-02-15T13:41:13;3.80;99.90
14277;DHT22;7222;57.346;12.150;2023-02-15T13:43:47;3.90;99.90
14277;DHT22;7222;57.346;12.150;2023-02-15T13:46:25;3.90;99.90
14277;DHT22;7222;57.346;12.150;2023-02-15T13:49:07;3.90;99.90
14277;DHT22;7222;57.346;12.150;2023-02-15T13:51:41;3.80;99.90
14277;DHT22;7222;57.346;12.150;2023-02-15T13:54:28;3.90;99.90
14277;DHT22;7222;57.346;12.150;2023-02-15T13:57:16;3.90;99.90
14277;DHT22;7222;57.346;12.150;2023-02-15T13:59:57;3.80;99.90
14277;DHT22;7222;57.346;12.150;2023-02-15T14:05:47;4.00;99.90
14277;DHT22;7222;57.346;12.150;2023-02-15T14:08:26;4.00;99.90
14277;DHT22;7222;57.346;12.150;2023-02-15T14:11:06;3.90;99.90
14277;DHT22;7222;57.346;12.150;2023-02-15T14:13:54;3.90;99.90
14277;DHT22;7222;57.346;12.150;2023-02-15T14:16:30;4.10;99.90
14277;DHT22;7222;57.346;12.150;2023-02-15T14:19:09;4.20;99.90
14277;DHT22;7222;57.346;12.150;2023-02-15T14:21:43;4.20;99.90
14277;DHT22;7222;57.346;12.150;2023-02-15T14:24:23;4.30;99.90
14277;DHT22;7222;57.346;12.150;2023-02-15T14:26:59;4.20;99.90
14277;DHT22;7222;57.346;12.150;2023-02-15T14:29:40;4.30;99.90
14277;DHT22;7222;57.346;12.150;2023-02-15T14:32:10;4.40;99.90
14277;DHT22;7222;57.346;12.150;2023-02-15T14:34:44;4.40;99.90
14277;DHT22;7222;57.346;12.150;2023-02-15T14:37:15;4.40;99.90
14277;DHT22;7222;57.346;12.150;2023-02-15T14:39:51;4.40;99.90
14277;DHT22;7222;57.346;12.150;2023-02-15T14:42:42;4.40;99.90
14277;DHT22;7222;57.346;12.150;2023-02-15T14:45:20;4.40;99.90
14277;DHT22;7222;57.346;12.150;2023-02-15T14:47:56;4.40;99.90
14277;DHT22;7222;57.346;12.150;2023-02-15T14:50:44;4.40;99.90
14277;DHT22;7222;57.346;12.150;2023-02-15T14:53:35;4.40;99.90
14277;DHT22;7222;57.346;12.150;2023-02-15T14:56:22;4.30;99.90
14277;DHT22;7222;57.346;12.150;2023-02-15T14:59:14;4.30;99.90
14277;DHT22;7222;57.346;12.150;2023-02-15T15:01:51;4.20;99.90
14277;DHT22;7222;57.346;12.150;2023-02-15T15:04:27;4.20;99.90
14277;DHT22;7222;57.346;12.150;2023-02-15T15:07:09;4.30;99.90
14277;DHT22;7222;57.346;12.150;2023-02-15T15:09:40;4.30;99.90
14277;DHT22;7222;57.346;12.150;2023-02-15T15:12:37;4.30;99.90
14277;DHT22;7222;57.346;12.150;2023-02-15T15:15:06;4.30;99.90
14277;DHT22;7222;57.346;12.150;2023-02-15T15:17:57;4.30;99.90
14277;DHT22;7222;57.346;12.150;2023-02-15T15:20:45;4.20;99.90
14277;DHT22;7222;57.346;12.150;2023-02-15T15:23:43;4.30;99.90
14277;DHT22;7222;57.346;12.150;2023-02-15T15:26:28;4.30;99.90
14277;DHT22;7222;57.346;12.150;2023-02-15T15:29:11;4.20;99.90
14277;DHT22;7222;57.346;12.150;2023-02-15T15:31:46;4.30;99.90
14277;DHT22;7222;57.346;12.150;2023-02-15T15:34:41;4.30;99.90
14277;DHT22;7222;57.346;12.150;2023-02-15T15:37:50;4.20;99.90
14277;DHT22;7222;57.346;12.150;2023-02-15T15:40:55;4.10;99.90
14277;DHT22;7222;57.346;12.150;2023-02-15T15:47:07;4.20;99.90
14277;DHT22;7222;57.346;12.150;2023-02-15T15:49:37;4.20;99.90
14277;DHT22;7222;57.346;12.150;2023-02-15T15:52:12;4.10;99.90
14277;DHT22;7222;57.346;12.150;2023-02-15T15:54:40;4.10;99.90
14277;DHT22;7222;57.346;12.150;2023-02-15T15:57:15;4.10;99.90
14277;DHT22;7222;57.346;12.150;2023-02-15T15:59:45;4.10;99.90
14277;DHT22;7222;57.346;12.150;2023-02-15T16:02:15;4.10;99.90
14277;DHT22;7222;57.346;12.150;2023-02-15T16:04:43;4.00;99.90
14277;DHT22;7222;57.346;12.150;2023-02-15T16:07:24;4.00;99.90
14277;DHT22;7222;57.346;12.150;2023-02-15T16:09:56;3.90;99.90
14277;DHT22;7222;57.346;12.150;2023-02-15T16:12:25;4.00;99.90
14277;DHT22;7222;57.346;12.150;2023-02-15T16:14:54;3.90;99.90
14277;DHT22;7222;57.346;12.150;2023-02-15T16:17:24;3.90;99.90
14277;DHT22;7222;57.346;12.150;2023-02-15T16:19:59;3.90;99.90
14277;DHT22;7222;57.346;12.150;2023-02-15T16:22:28;3.90;99.90
14277;DHT22;7222;57.346;12.150;2023-02-15T16:25:11;3.90;99.90
14277;DHT22;7222;57.346;12.150;2023-02-15T16:27:40;3.90;99.90
14277;DHT22;7222;57.346;12.150;2023-02-15T16:30:21;3.90;99.90